Time;durP1;ratioP1;P1;durP2;ratioP2;P2;SDS_P1;SDS_P2;PMS_P1;PMS_P2;Temp;Humidity;BMP_temperature;BMP_pressure;BME280_temperature;BME280_humidity;BME280_pressure;Samples;Min_cycle;Max_cycle;Signal;HPM_P1;HPM_P2
2022/06/29 00:02:30;;;;;;;3.83;1.23;;;17.00;99.90;;;;;;4879719;29;20211;-96
2022/06/29 00:05:03;;;;;;;6.93;1.30;;;16.90;99.90;;;;;;4891993;29;20283;-96
2022/06/29 00:45:41;;;;;;;3.17;1.30;;;16.80;99.90;;;;;;4887008;29;20219;-96
2022/06/29 00:48:14;;;;;;;1.97;1.30;;;16.80;99.90;;;;;;4887071;29;20207;-96
2022/06/29 00:53:43;;;;;;;3.33;1.10;;;16.60;99.90;;;;;;4883138;29;20243;-96
2022/06/29 00:56:16;;;;;;;2.13;1.20;;;16.30;99.90;;;;;;4882077;29;20234;-96
2022/06/29 00:58:52;;;;;;;2.27;0.80;;;16.20;99.90;;;;;;4880020;29;20227;-96
2022/06/29 01:01:25;;;;;;;1.50;1.10;;;16.00;99.90;;;;;;4878339;29;20240;-96
2022/06/29 01:03:58;;;;;;;2.23;1.00;;;16.00;99.90;;;;;;4884371;29;20725;-96
2022/06/29 01:06:30;;;;;;;2.63;1.10;;;15.90;99.90;;;;;;4879291;29;20225;-96
2022/06/29 01:09:02;;;;;;;1.20;0.80;;;16.10;99.90;;;;;;4879259;29;20235;-96
2022/06/29 01:11:33;;;;;;;2.30;0.90;;;16.10;99.90;;;;;;4879171;29;20223;-96
2022/06/29 01:14:09;;;;;;;3.77;0.80;;;16.20;99.90;;;;;;4883057;29;20645;-96
2022/06/29 01:16:41;;;;;;;3.60;1.03;;;16.30;99.90;;;;;;4883279;29;20249;-96
2022/06/29 01:22:34;;;;;;;1.17;0.80;;;16.20;99.90;;;;;;5228256;23;20252;-96
2022/06/29 01:25:19;;;;;;;2.60;0.83;;;16.20;99.90;;;;;;4894395;29;20238;-96
2022/06/29 01:27:53;;;;;;;3.13;0.70;;;16.00;99.90;;;;;;4892633;29;20258;-96
2022/06/29 01:38:48;;;;;;;0.93;0.70;;;15.80;99.90;;;;;;5831719;23;20283;-96
2022/06/29 01:41:29;;;;;;;1.23;0.80;;;15.90;99.90;;;;;;4893883;29;20531;-96
2022/06/29 01:44:13;;;;;;;0.67;0.67;;;16.00;99.90;;;;;;4891476;29;20236;-96
2022/06/29 01:53:38;;;;;;;1.20;0.70;;;15.80;99.90;;;;;;4895302;29;20210;-96
2022/06/29 01:56:19;;;;;;;1.67;0.80;;;15.90;99.90;;;;;;4889472;29;20210;-96
2022/06/29 02:01:49;;;;;;;2.20;0.60;;;16.10;99.90;;;;;;4889062;29;20225;-96
2022/06/29 02:07:24;;;;;;;1.33;0.80;;;16.10;99.90;;;;;;4896164;29;20248;-96
2022/06/29 03:00:03;;;;;;;0.70;0.70;;;15.30;99.90;;;;;;4882408;29;20217;-96
2022/06/29 03:02:38;;;;;;;0.97;0.60;;;15.40;99.90;;;;;;4882060;29;20255;-96
2022/06/29 03:14:31;;;;;;;1.63;0.60;;;15.40;99.90;;;;;;4878812;29;20211;-96
2022/06/29 03:17:23;;;;;;;1.20;0.80;;;15.40;99.90;;;;;;4870644;29;20236;-96
2022/06/29 03:19:56;;;;;;;1.50;0.70;;;15.40;99.90;;;;;;4869570;29;20223;-96
2022/06/29 03:25:56;;;;;;;1.63;0.60;;;15.30;99.90;;;;;;4880089;29;20239;-96
2022/06/29 03:39:02;;;;;;;2.00;0.67;;;15.30;99.90;;;;;;4881456;29;20215;-96
2022/06/29 03:41:58;;;;;;;0.50;0.50;;;15.30;99.90;;;;;;4881007;29;20226;-96
2022/06/29 03:44:49;;;;;;;1.27;0.73;;;15.40;99.90;;;;;;4869146;29;20275;-96
2022/06/29 03:56:12;;;;;;;1.30;1.00;;;15.40;99.90;;;;;;4931725;23;20305;-96
2022/06/29 03:58:45;;;;;;;0.93;0.77;;;15.40;99.90;;;;;;4886444;29;20787;-96
2022/06/29 04:01:16;;;;;;;0.73;0.63;;;15.40;99.90;;;;;;4888383;29;20222;-96
2022/06/29 04:06:48;;;;;;;1.53;0.50;;;15.40;99.90;;;;;;4891167;29;20214;-96
2022/06/29 04:09:23;;;;;;;1.53;0.70;;;15.30;99.90;;;;;;4891221;29;20224;-96
2022/06/29 04:12:23;;;;;;;1.23;0.63;;;15.40;99.90;;;;;;4887819;29;20230;-96
2022/06/29 04:14:58;;;;;;;0.83;0.70;;;15.30;99.90;;;;;;4890540;29;20218;-96
2022/06/29 04:17:33;;;;;;;1.77;0.87;;;15.30;99.90;;;;;;4888084;29;20645;-96
2022/06/29 04:20:08;;;;;;;3.30;0.73;;;15.30;99.90;;;;;;4883873;29;20214;-96
2022/06/29 04:22:39;;;;;;;0.70;0.70;;;15.20;99.90;;;;;;4883788;29;20214;-96
2022/06/29 04:25:12;;;;;;;1.03;0.57;;;15.20;99.90;;;;;;4885022;29;20245;-96
2022/06/29 04:27:48;;;;;;;0.97;0.47;;;15.20;99.90;;;;;;4886128;29;20211;-96
2022/06/29 04:33:36;;;;;;;1.33;0.50;;;15.20;99.90;;;;;;4891085;29;20266;-96
2022/06/29 04:36:10;;;;;;;0.53;0.53;;;15.20;99.90;;;;;;4889632;29;20210;-96
2022/06/29 04:38:52;;;;;;;1.20;0.50;;;15.20;99.90;;;;;;4891781;29;20210;-96
2022/06/29 04:41:32;;;;;;;0.53;0.37;;;15.20;99.90;;;;;;4887253;29;20225;-96
2022/06/29 04:44:19;;;;;;;4.20;0.50;;;15.20;99.90;;;;;;4897339;29;20210;-94
2022/06/29 04:47:11;;;;;;;0.87;0.30;;;15.20;99.90;;;;;;4899617;29;20226;-96
2022/06/29 04:49:43;;;;;;;0.83;0.60;;;15.30;99.90;;;;;;4894254;29;20214;-96
2022/06/29 04:55:19;;;;;;;0.93;0.50;;;15.30;99.90;;;;;;4894112;29;20312;-96
2022/06/29 04:57:55;;;;;;;0.40;0.40;;;15.30;99.90;;;;;;4889527;29;20329;-96
2022/06/29 05:00:41;;;;;;;0.63;0.40;;;15.20;99.90;;;;;;4886698;29;20213;-96
2022/06/29 05:03:28;;;;;;;0.40;0.33;;;15.10;99.90;;;;;;4886823;29;20225;-96
2022/06/29 05:06:02;;;;;;;0.90;0.30;;;15.10;99.90;;;;;;4884354;29;20254;-96
2022/06/29 05:08:34;;;;;;;0.50;0.33;;;15.10;99.90;;;;;;4884997;29;20218;-96
2022/06/29 05:11:10;;;;;;;0.77;0.40;;;14.90;99.90;;;;;;4885194;29;20238;-96
2022/06/29 05:13:46;;;;;;;1.47;0.47;;;15.10;99.90;;;;;;4888853;29;20210;-96
2022/06/29 05:16:19;;;;;;;0.40;0.40;;;15.00;99.90;;;;;;4886671;29;20292;-96
2022/06/29 05:18:57;;;;;;;1.17;0.30;;;15.00;99.90;;;;;;4889689;29;20221;-96
2022/06/29 05:24:16;;;;;;;0.33;0.27;;;15.00;99.90;;;;;;4889032;29;20217;-96
2022/06/29 05:26:54;;;;;;;0.93;0.30;;;15.00;99.90;;;;;;4890023;29;20241;-96
2022/06/29 05:29:44;;;;;;;0.60;0.47;;;14.90;99.90;;;;;;4888504;29;20231;-96
2022/06/29 05:32:25;;;;;;;0.70;0.50;;;14.90;99.90;;;;;;4890006;29;20218;-96
2022/06/29 05:37:51;;;;;;;0.50;0.50;;;14.90;99.90;;;;;;4891654;29;20293;-95
2022/06/29 05:40:26;;;;;;;0.80;0.47;;;14.90;99.90;;;;;;4891000;29;20211;-95
2022/06/29 05:43:03;;;;;;;0.60;0.60;;;14.90;99.90;;;;;;4892581;29;20214;-96
2022/06/29 05:45:49;;;;;;;0.70;0.50;;;14.80;99.90;;;;;;4892462;29;20238;-96
2022/06/29 05:51:26;;;;;;;0.47;0.47;;;14.80;99.90;;;;;;4904270;29;20214;-96
2022/06/29 05:54:04;;;;;;;0.97;0.57;;;14.80;99.90;;;;;;4903943;29;20229;-96
2022/06/29 05:59:22;;;;;;;0.60;0.50;;;14.80;99.90;;;;;;4902815;29;20225;-96
2022/06/29 06:01:59;;;;;;;0.93;0.40;;;14.80;99.90;;;;;;4902026;29;20756;-96
2022/06/29 06:04:45;;;;;;;0.40;0.40;;;14.80;99.90;;;;;;4895560;29;20668;-96
2022/06/29 06:07:41;;;;;;;0.83;0.60;;;14.80;99.90;;;;;;4887746;29;20262;-96
2022/06/29 06:12:57;;;;;;;0.57;0.50;;;14.70;99.90;;;;;;4890403;29;20246;-96
2022/06/29 06:15:29;;;;;;;0.40;0.40;;;14.70;99.90;;;;;;4888925;29;20218;-96
2022/06/29 06:18:01;;;;;;;0.83;0.43;;;14.70;99.90;;;;;;4888388;29;20218;-96
2022/06/29 06:20:55;;;;;;;0.33;0.33;;;14.80;99.90;;;;;;4885516;29;20217;-96
2022/06/29 06:23:31;;;;;;;0.50;0.50;;;14.80;99.90;;;;;;4888701;29;20721;-96
2022/06/29 06:26:05;;;;;;;0.47;0.40;;;14.80;99.90;;;;;;4887395;29;20281;-96
2022/06/29 06:28:39;;;;;;;0.60;0.50;;;14.80;99.90;;;;;;4878506;29;20218;-96
2022/06/29 06:33:56;;;;;;;0.67;0.43;;;14.80;99.90;;;;;;4868336;29;20275;-96
2022/06/29 06:36:28;;;;;;;1.10;0.50;;;14.80;99.90;;;;;;4875532;29;20210;-96
2022/06/29 06:42:12;;;;;;;0.60;0.53;;;14.70;99.90;;;;;;4882955;29;20210;-96
2022/06/29 07:00:19;;;;;;;0.60;0.50;;;14.70;99.90;;;;;;4875244;29;20219;-96
2022/06/29 07:02:55;;;;;;;0.50;0.50;;;14.70;99.90;;;;;;4873744;29;20247;-96
2022/06/29 07:05:32;;;;;;;0.43;0.40;;;14.80;99.90;;;;;;4872615;29;20278;-96
2022/06/29 07:08:15;;;;;;;1.13;0.40;;;14.80;99.90;;;;;;4874205;29;20225;-96
2022/06/29 07:10:53;;;;;;;1.27;0.70;;;14.80;99.90;;;;;;4868974;29;20238;-96
2022/06/29 07:13:28;;;;;;;0.50;0.50;;;14.80;99.90;;;;;;4870597;29;20218;-96
2022/06/29 07:16:03;;;;;;;0.30;0.30;;;14.80;99.90;;;;;;4874504;29;20240;-96
2022/06/29 07:18:39;;;;;;;1.33;0.57;;;14.80;99.90;;;;;;4902071;29;20209;-96
2022/06/29 07:21:19;;;;;;;0.70;0.50;;;14.80;99.90;;;;;;4902217;29;20208;-96
2022/06/29 07:23:58;;;;;;;0.40;0.40;;;14.80;99.90;;;;;;4902499;29;20329;-96
2022/06/29 07:29:29;;;;;;;0.60;0.50;;;14.70;99.90;;;;;;4897479;29;20234;-96
2022/06/29 07:32:17;;;;;;;0.90;0.70;;;14.70;99.90;;;;;;5020553;23;20249;-96
2022/06/29 07:34:52;;;;;;;4.60;0.57;;;14.70;99.90;;;;;;4894798;29;20206;-96
2022/06/29 07:37:27;;;;;;;0.53;0.40;;;14.70;99.90;;;;;;4895247;29;20204;-96
2022/06/29 07:40:00;;;;;;;1.07;0.50;;;14.60;99.90;;;;;;4892035;29;20220;-96
2022/06/29 07:42:50;;;;;;;0.70;0.50;;;14.60;99.90;;;;;;4894503;29;20229;-96
2022/06/29 07:45:26;;;;;;;1.17;0.50;;;14.60;99.90;;;;;;4883959;29;20207;-96
2022/06/29 07:48:07;;;;;;;0.90;0.73;;;14.60;99.90;;;;;;4883401;29;20259;-96
2022/06/29 07:50:45;;;;;;;1.00;0.60;;;14.60;99.90;;;;;;4883805;29;20219;-96
2022/06/29 07:53:20;;;;;;;1.37;0.50;;;14.50;99.90;;;;;;4883264;29;20211;-96
2022/06/29 07:58:39;;;;;;;0.60;0.60;;;14.50;99.90;;;;;;4883937;29;20220;-96
2022/06/29 08:01:11;;;;;;;1.23;0.50;;;14.50;99.90;;;;;;4882977;29;20207;-96
2022/06/29 08:03:47;;;;;;;1.77;0.50;;;14.50;99.90;;;;;;4883787;29;20494;-96
2022/06/29 08:09:09;;;;;;;0.50;0.50;;;14.50;99.90;;;;;;5148260;23;20289;-95
2022/06/29 08:14:43;;;;;;;1.90;0.60;;;14.60;99.90;;;;;;4887207;29;20206;-96
2022/06/29 08:22:58;;;;;;;0.50;0.50;;;14.50;99.90;;;;;;4899314;29;20213;-96
2022/06/29 08:25:37;;;;;;;0.60;0.60;;;14.50;99.90;;;;;;4897492;29;20221;-96
2022/06/29 08:28:26;;;;;;;0.30;0.30;;;14.50;99.90;;;;;;4891481;29;20238;-96
2022/06/29 08:31:00;;;;;;;1.10;0.57;;;14.50;99.90;;;;;;4889536;29;20224;-96
2022/06/29 08:33:35;;;;;;;1.03;0.60;;;14.50;99.90;;;;;;4887627;29;20397;-96
2022/06/29 08:36:11;;;;;;;0.97;0.60;;;14.50;99.90;;;;;;4894496;29;20210;-96
2022/06/29 08:42:08;;;;;;;0.97;0.60;;;14.40;99.90;;;;;;4890188;29;20263;-96
2022/06/29 08:44:41;;;;;;;0.50;0.50;;;14.40;99.90;;;;;;4885891;29;20230;-96
2022/06/29 08:47:16;;;;;;;1.00;0.70;;;14.40;99.90;;;;;;4888937;29;20321;-96
2022/06/29 08:49:51;;;;;;;0.60;0.60;;;14.40;99.90;;;;;;4892931;29;20217;-96
2022/06/29 08:55:37;;;;;;;0.50;0.50;;;14.30;99.90;;;;;;4891031;29;20207;-96
2022/06/29 08:58:32;;;;;;;1.43;0.57;;;14.30;99.90;;;;;;4892862;29;20218;-96
2022/06/29 09:01:09;;;;;;;1.20;0.77;;;14.40;99.90;;;;;;4891687;29;20791;-96
2022/06/29 09:06:56;;;;;;;1.20;0.70;;;14.30;99.90;;;;;;4894838;29;20272;-96
2022/06/29 09:09:54;;;;;;;1.47;0.50;;;14.30;99.90;;;;;;4894127;29;20214;-96
2022/06/29 09:12:31;;;;;;;0.83;0.80;;;14.30;99.90;;;;;;4894660;29;20210;-96
2022/06/29 09:18:06;;;;;;;0.80;0.63;;;14.30;99.90;;;;;;4887830;29;20215;-96
2022/06/29 09:20:45;;;;;;;1.97;0.70;;;14.30;99.90;;;;;;4889224;29;20265;-96
2022/06/29 09:23:17;;;;;;;0.53;0.53;;;14.30;99.90;;;;;;4887975;29;20691;-96
2022/06/29 09:25:50;;;;;;;0.60;0.60;;;14.30;99.90;;;;;;4888035;29;20234;-96
2022/06/29 09:28:25;;;;;;;1.17;0.50;;;14.20;99.90;;;;;;4888192;29;20325;-96
2022/06/29 09:31:10;;;;;;;0.87;0.63;;;14.20;99.90;;;;;;4888966;29;20213;-96
2022/06/29 09:33:45;;;;;;;1.67;0.63;;;14.20;99.90;;;;;;4888907;29;20207;-96
2022/06/29 09:36:19;;;;;;;1.33;0.70;;;14.30;99.90;;;;;;4887999;29;20217;-96
2022/06/29 09:39:04;;;;;;;0.60;0.57;;;14.30;99.90;;;;;;4887351;29;20206;-96
2022/06/29 09:41:36;;;;;;;0.50;0.50;;;14.30;99.90;;;;;;4886867;29;20226;-96
2022/06/29 09:44:08;;;;;;;0.60;0.50;;;14.30;99.90;;;;;;4888960;29;20313;-96
2022/06/29 09:46:51;;;;;;;2.63;0.63;;;14.40;99.90;;;;;;4887922;29;20285;-96
2022/06/29 09:49:32;;;;;;;0.50;0.50;;;14.30;99.90;;;;;;4888456;29;20222;-96
2022/06/29 09:52:08;;;;;;;0.90;0.70;;;14.30;99.90;;;;;;4887284;29;20277;-96
2022/06/29 09:55:01;;;;;;;1.13;0.50;;;14.30;99.90;;;;;;4890352;29;20302;-96
2022/06/29 09:57:40;;;;;;;1.90;0.60;;;14.30;99.90;;;;;;4891188;29;20245;-96
2022/06/29 10:09:14;;;;;;;0.50;0.50;;;14.40;99.90;;;;;;4874524;29;20238;-96
2022/06/29 10:15:12;;;;;;;0.63;0.50;;;14.30;99.90;;;;;;4856114;29;20211;-96
2022/06/29 10:17:57;;;;;;;0.47;0.47;;;14.30;99.90;;;;;;4873957;29;20267;-96
2022/06/29 10:20:47;;;;;;;1.60;0.70;;;14.20;99.90;;;;;;4873402;29;20207;-96
2022/06/29 10:23:51;;;;;;;1.97;0.60;;;14.20;99.90;;;;;;4872226;29;20280;-96
2022/06/29 10:26:45;;;;;;;0.50;0.50;;;14.30;99.90;;;;;;4873443;29;20206;-96
2022/06/29 10:32:10;;;;;;;1.00;0.50;;;14.30;99.90;;;;;;4916268;23;20306;-96
2022/06/29 10:37:32;;;;;;;0.50;0.50;;;14.30;99.90;;;;;;4883116;29;20222;-96
2022/06/29 10:40:27;;;;;;;0.70;0.50;;;14.00;99.90;;;;;;4890424;29;20214;-96
2022/06/29 10:43:08;;;;;;;0.50;0.50;;;13.70;99.90;;;;;;4892112;29;20225;-96
2022/06/29 10:45:51;;;;;;;0.83;0.63;;;13.60;99.90;;;;;;4893055;29;20640;-96
2022/06/29 10:48:39;;;;;;;0.50;0.50;;;13.60;99.90;;;;;;4898174;29;20238;-96
2022/06/29 10:51:14;;;;;;;0.70;0.50;;;13.50;99.90;;;;;;4894791;29;20214;-96
2022/06/29 10:53:46;;;;;;;0.53;0.50;;;13.50;99.90;;;;;;4894964;29;20270;-96
2022/06/29 10:56:50;;;;;;;0.80;0.50;;;13.50;99.90;;;;;;4895022;29;20242;-96
2022/06/29 10:59:37;;;;;;;0.50;0.50;;;13.50;99.90;;;;;;4899647;29;20836;-96
2022/06/29 11:02:19;;;;;;;0.50;0.50;;;13.60;99.90;;;;;;4900891;29;20218;-96
2022/06/29 11:05:04;;;;;;;0.70;0.40;;;13.60;99.90;;;;;;4888249;29;20246;-96
2022/06/29 11:18:11;;;;;;;0.87;0.40;;;13.60;99.90;;;;;;5034258;23;20258;-96
2022/06/29 11:20:48;;;;;;;0.40;0.40;;;13.70;99.90;;;;;;4902012;29;20222;-96
2022/06/29 11:23:29;;;;;;;0.47;0.47;;;13.60;99.90;;;;;;4903281;29;20190;-96
2022/06/29 11:26:02;;;;;;;0.40;0.40;;;13.60;99.90;;;;;;4903164;29;20222;-96
2022/06/29 11:29:02;;;;;;;1.67;0.40;;;13.60;99.90;;;;;;4901465;29;20286;-96
2022/06/29 11:32:02;;;;;;;0.40;0.40;;;13.50;99.90;;;;;;4895551;29;20210;-96
2022/06/29 11:34:38;;;;;;;0.20;0.20;;;13.50;99.90;;;;;;4893289;29;20244;-96
2022/06/29 11:37:11;;;;;;;0.53;0.40;;;13.50;99.90;;;;;;4894424;29;20218;-96
2022/06/29 11:39:50;;;;;;;0.40;0.40;;;13.50;99.90;;;;;;4894921;29;20222;-96
2022/06/29 11:52:14;;;;;;;0.30;0.30;;;13.70;99.90;;;;;;4891002;29;20214;-96
2022/06/29 11:54:52;;;;;;;0.30;0.30;;;13.70;99.90;;;;;;4895445;29;20214;-96
2022/06/29 11:57:25;;;;;;;0.50;0.30;;;13.70;99.90;;;;;;4895949;29;20277;-96
2022/06/29 12:00:07;;;;;;;0.77;0.33;;;13.60;99.90;;;;;;4893846;29;20277;-97
2022/06/29 12:02:41;;;;;;;1.13;0.60;;;13.60;99.90;;;;;;4894748;29;20217;-96
2022/06/29 12:05:19;;;;;;;0.80;0.40;;;13.60;99.90;;;;;;4899738;29;20277;-96
2022/06/29 12:07:56;;;;;;;0.57;0.30;;;13.50;99.90;;;;;;4899935;29;20197;-95
2022/06/29 12:10:34;;;;;;;1.07;0.40;;;13.50;99.90;;;;;;4899400;29;20225;-96
2022/06/29 12:16:09;;;;;;;0.77;0.60;;;13.50;99.90;;;;;;4900381;29;20282;-96
2022/06/29 12:18:44;;;;;;;1.40;0.60;;;13.30;99.90;;;;;;4899659;29;20217;-96
2022/06/29 12:24:11;;;;;;;0.53;0.53;;;13.20;99.90;;;;;;4903084;29;20205;-96
2022/06/29 12:29:40;;;;;;;1.13;0.60;;;13.20;99.90;;;;;;4906231;29;20265;-96
2022/06/29 12:32:24;;;;;;;2.50;0.60;;;13.10;99.90;;;;;;4905849;29;20194;-96
2022/06/29 12:34:56;;;;;;;1.23;0.67;;;13.10;99.90;;;;;;4905876;29;20190;-95
2022/06/29 12:37:31;;;;;;;1.13;0.60;;;13.10;99.90;;;;;;4905856;29;20190;-96
2022/06/29 12:40:08;;;;;;;1.50;0.70;;;13.10;99.90;;;;;;4905553;29;20219;-96
2022/06/29 12:42:41;;;;;;;1.20;0.67;;;13.10;99.90;;;;;;4905929;29;20209;-96
2022/06/29 12:47:48;;;;;;;1.10;0.60;;;13.10;99.90;;;;;;4885683;29;20237;-96
2022/06/29 12:50:22;;;;;;;1.17;0.70;;;13.10;99.90;;;;;;4886625;29;20283;-96
2022/06/29 12:52:56;;;;;;;1.00;0.70;;;13.20;99.90;;;;;;4886957;29;20195;-96
2022/06/29 12:55:31;;;;;;;1.60;0.90;;;13.10;99.90;;;;;;4886159;29;20202;-96
2022/06/29 12:58:04;;;;;;;1.50;0.60;;;13.10;99.90;;;;;;4886150;29;20218;-96
2022/06/29 13:00:36;;;;;;;1.17;0.63;;;13.20;99.90;;;;;;4886503;29;20202;-96
2022/06/29 13:03:08;;;;;;;1.40;0.70;;;13.20;99.90;;;;;;4886857;29;20202;-96
2022/06/29 13:05:42;;;;;;;1.60;0.73;;;13.30;99.90;;;;;;4938502;23;20229;-96
2022/06/29 13:08:27;;;;;;;0.70;0.60;;;13.40;99.90;;;;;;4905515;29;20216;-96
2022/06/29 13:11:23;;;;;;;1.60;0.73;;;13.40;99.90;;;;;;4902898;29;20203;-96
2022/06/29 13:13:57;;;;;;;1.67;0.70;;;13.40;99.90;;;;;;4902127;29;20224;-96
2022/06/29 13:16:36;;;;;;;1.33;0.83;;;13.40;99.90;;;;;;4900718;29;20250;-96
2022/06/29 13:19:17;;;;;;;2.07;1.20;;;13.40;99.90;;;;;;4900007;29;20278;-96
2022/06/29 13:22:08;;;;;;;2.53;1.00;;;13.50;99.90;;;;;;4899584;29;20211;-96
2022/06/29 13:24:41;;;;;;;2.13;0.93;;;13.50;99.90;;;;;;4899723;29;20260;-96
2022/06/29 13:27:24;;;;;;;2.20;0.87;;;13.60;99.90;;;;;;4898067;29;20254;-96
2022/06/29 13:30:05;;;;;;;1.37;0.83;;;13.50;99.90;;;;;;4893966;29;20249;-96
2022/06/29 13:32:41;;;;;;;1.83;0.90;;;13.40;99.90;;;;;;4889160;29;20317;-96
2022/06/29 13:35:12;;;;;;;1.17;0.87;;;13.40;99.90;;;;;;4890869;29;20214;-96
2022/06/29 13:37:44;;;;;;;2.27;0.97;;;13.50;99.90;;;;;;4889627;29;20214;-96
2022/06/29 13:40:25;;;;;;;2.20;1.00;;;13.50;99.90;;;;;;4887970;29;20239;-95
2022/06/29 13:43:00;;;;;;;3.10;0.80;;;13.40;99.90;;;;;;4889843;29;20221;-96
2022/06/29 13:45:37;;;;;;;3.07;0.97;;;13.50;99.90;;;;;;4890548;29;20210;-96
2022/06/29 13:48:12;;;;;;;1.73;0.90;;;13.50;99.90;;;;;;4888930;29;20214;-96
2022/06/29 13:53:33;;;;;;;2.53;0.97;;;13.70;99.90;;;;;;4889525;29;20210;-96
2022/06/29 13:56:07;;;;;;;2.53;1.03;;;13.80;99.90;;;;;;4887813;29;20278;-96
2022/06/29 13:58:43;;;;;;;1.77;0.90;;;13.90;99.90;;;;;;4890779;29;20225;-96
2022/06/29 14:01:25;;;;;;;2.43;1.10;;;14.00;99.90;;;;;;4892263;29;20221;-96
2022/06/29 14:03:58;;;;;;;2.90;0.90;;;14.10;99.90;;;;;;4889578;29;20234;-96
2022/06/29 14:06:32;;;;;;;1.27;0.97;;;14.10;99.90;;;;;;4888792;29;20233;-96
2022/06/29 14:09:06;;;;;;;3.23;1.00;;;14.10;99.90;;;;;;4890584;29;20218;-96
2022/06/29 14:11:43;;;;;;;3.17;0.90;;;14.00;99.90;;;;;;4894750;29;20690;-96
2022/06/29 14:14:34;;;;;;;1.43;0.80;;;13.90;99.90;;;;;;4898689;29;20214;-96
2022/06/29 14:17:15;;;;;;;1.07;0.80;;;13.90;99.90;;;;;;4894338;29;20226;-96
2022/06/29 14:19:50;;;;;;;1.07;0.73;;;13.80;99.90;;;;;;4892473;29;20210;-96
2022/06/29 14:22:27;;;;;;;1.30;1.00;;;13.60;99.90;;;;;;4889952;29;20224;-96
2022/06/29 14:25:02;;;;;;;2.67;0.80;;;13.70;99.90;;;;;;4890868;29;20218;-96
2022/06/29 14:27:35;;;;;;;1.27;1.10;;;13.70;99.90;;;;;;4890631;29;20217;-96
2022/06/29 14:30:16;;;;;;;1.73;1.10;;;13.80;99.90;;;;;;4890004;29;20321;-96
2022/06/29 14:32:57;;;;;;;3.57;1.30;;;13.80;99.90;;;;;;4889874;29;20277;-96
2022/06/29 14:35:32;;;;;;;2.07;1.20;;;13.80;99.90;;;;;;4888812;29;20214;-96
2022/06/29 14:40:55;;;;;;;2.60;1.03;;;13.90;99.90;;;;;;4888745;29;20214;-96
2022/06/29 14:43:37;;;;;;;1.40;0.90;;;13.90;99.90;;;;;;4887204;29;20214;-96
2022/06/29 14:46:17;;;;;;;1.37;1.07;;;13.90;99.90;;;;;;4886836;29;20218;-96
2022/06/29 14:48:49;;;;;;;3.13;1.10;;;14.10;99.90;;;;;;4886891;29;20246;-96
2022/06/29 14:51:20;;;;;;;1.73;1.10;;;14.10;99.90;;;;;;4885827;29;20294;-96
2022/06/29 14:56:38;;;;;;;2.93;0.90;;;14.20;99.90;;;;;;4898448;29;20274;-96
2022/06/29 14:59:43;;;;;;;2.70;1.33;;;14.30;99.90;;;;;;4900046;29;20214;-96
2022/06/29 15:02:21;;;;;;;2.37;0.90;;;14.10;99.90;;;;;;4899297;29;20194;-96
2022/06/29 15:04:57;;;;;;;2.83;1.00;;;14.10;99.90;;;;;;4898185;29;20238;-96
2022/06/29 15:07:43;;;;;;;1.37;0.90;;;14.10;99.90;;;;;;4890915;29;20232;-96
2022/06/29 15:10:31;;;;;;;2.10;1.00;;;14.10;99.90;;;;;;4898165;29;20257;-96
2022/06/29 15:13:29;;;;;;;1.70;0.83;;;14.00;99.90;;;;;;4894985;29;20237;-96
2022/06/29 15:21:48;;;;;;;1.43;0.97;;;14.40;99.90;;;;;;4901922;29;20286;-96
2022/06/29 15:24:25;;;;;;;1.00;0.80;;;14.50;99.90;;;;;;4899338;29;20210;-96
2022/06/29 15:27:00;;;;;;;1.17;0.90;;;14.50;99.90;;;;;;4899164;29;20204;-96
2022/06/29 15:50:26;;;;;;;2.47;1.00;;;14.30;99.90;;;;;;4895664;29;20238;-96
2022/06/29 15:56:32;;;;;;;1.53;0.67;;;14.70;99.90;;;;;;4898596;29;20226;-96
2022/06/29 16:05:02;;;;;;;1.50;0.87;;;14.30;99.90;;;;;;4891469;29;20206;-96
2022/06/29 16:07:41;;;;;;;1.50;0.60;;;14.30;99.90;;;;;;4890555;29;20226;-96
2022/06/29 16:10:26;;;;;;;1.70;0.70;;;14.50;99.90;;;;;;4892191;29;20242;-96
2022/06/29 16:15:48;;;;;;;1.70;0.73;;;14.40;99.90;;;;;;4890803;29;20229;-96
2022/06/29 16:18:25;;;;;;;0.80;0.60;;;14.60;99.90;;;;;;4892448;29;20213;-96
2022/06/29 16:34:59;;;;;;;1.87;0.97;;;15.00;99.90;;;;;;4897129;29;20314;-96
2022/06/29 16:38:13;;;;;;;3.67;0.77;;;14.50;99.90;;;;;;4896038;29;20210;-96
2022/06/29 16:52:44;;;;;;;1.13;0.77;;;14.40;99.90;;;;;;5087983;23;20293;-96
2022/06/29 16:55:19;;;;;;;3.50;1.10;;;14.50;99.90;;;;;;4882503;29;20669;-96
2022/06/29 16:58:03;;;;;;;2.30;0.70;;;14.50;99.90;;;;;;4882724;29;20217;-96
2022/06/29 17:06:28;;;;;;;0.87;0.60;;;14.70;99.90;;;;;;4881804;29;20226;-96
2022/06/29 17:24:26;;;;;;;1.77;0.80;;;15.00;99.90;;;;;;4880773;29;20244;-96
2022/06/29 17:27:25;;;;;;;2.00;0.67;;;14.80;99.90;;;;;;4882299;29;20195;-96
2022/06/29 17:41:37;;;;;;;1.33;0.60;;;15.20;99.90;;;;;;4882751;29;20215;-97
2022/06/29 17:59:17;;;;;;;1.30;0.60;;;16.30;99.90;;;;;;4913199;29;20230;-97
2022/06/29 18:02:08;;;;;;;2.50;0.80;;;16.40;99.90;;;;;;4894558;29;20206;-96
2022/06/29 18:04:46;;;;;;;1.77;0.60;;;16.50;99.90;;;;;;4911975;29;20217;-96
2022/06/29 18:07:38;;;;;;;0.43;0.43;;;16.50;99.90;;;;;;4898447;29;20217;-96
2022/06/29 18:10:23;;;;;;;1.90;0.67;;;16.40;99.90;;;;;;4900218;29;20201;-95
2022/06/29 18:13:16;;;;;;;3.03;0.77;;;16.00;99.90;;;;;;4916274;29;20281;-95
2022/06/29 18:15:56;;;;;;;1.37;0.80;;;16.20;99.90;;;;;;4901769;29;20220;-96
2022/06/29 18:18:48;;;;;;;1.57;0.90;;;16.50;99.90;;;;;;4898297;29;20215;-96
2022/06/29 18:21:30;;;;;;;0.70;0.70;;;16.40;99.90;;;;;;4884833;29;20195;-96
2022/06/29 18:24:11;;;;;;;2.00;0.70;;;16.90;99.90;;;;;;4885362;29;20236;-96
2022/06/29 18:26:53;;;;;;;0.73;0.53;;;16.90;99.90;;;;;;4887146;29;20213;-96
2022/06/29 18:29:37;;;;;;;1.23;0.60;;;16.90;99.90;;;;;;4898010;29;20309;-96
2022/06/29 18:44:50;;;;;;;2.87;0.90;;;18.00;99.90;;;;;;5297893;23;20249;-96
2022/06/29 18:47:33;;;;;;;0.80;0.80;;;18.20;99.90;;;;;;4895406;29;20234;-96
2022/06/29 18:53:16;;;;;;;2.60;1.20;;;18.30;99.90;;;;;;4893720;29;20293;-96
2022/06/29 18:58:40;;;;;;;1.03;0.77;;;18.10;99.90;;;;;;4899910;29;20206;-96
2022/06/29 19:01:32;;;;;;;1.73;0.93;;;17.30;99.90;;;;;;4898485;29;20228;-96
2022/06/29 19:04:12;;;;;;;2.73;1.13;;;17.10;99.90;;;;;;5003153;23;20222;-96
2022/06/29 19:09:46;;;;;;;1.27;1.10;;;17.00;99.90;;;;;;4889278;29;20215;-96
2022/06/29 19:12:17;;;;;;;1.40;0.80;;;16.90;99.90;;;;;;4889338;29;20296;-96
2022/06/29 19:14:50;;;;;;;1.07;0.90;;;16.80;99.90;;;;;;4887005;29;20215;-96
2022/06/29 19:17:35;;;;;;;1.20;0.90;;;16.60;99.90;;;;;;4887544;29;20218;-96
2022/06/29 19:22:54;;;;;;;2.50;0.90;;;17.00;99.90;;;;;;4887710;29;20258;-96
2022/06/29 19:25:26;;;;;;;2.63;0.90;;;17.10;99.90;;;;;;4893375;29;20214;-96
2022/06/29 19:27:59;;;;;;;2.03;1.00;;;17.10;99.90;;;;;;4888059;29;20232;-96
2022/06/29 19:30:34;;;;;;;3.23;0.93;;;17.10;99.90;;;;;;4885135;29;20207;-96
2022/06/29 19:33:15;;;;;;;1.00;0.90;;;17.40;99.90;;;;;;4885937;29;20254;-96
2022/06/29 19:35:51;;;;;;;0.70;0.70;;;17.20;99.90;;;;;;4886131;29;20221;-96
2022/06/29 19:38:28;;;;;;;1.20;0.83;;;17.30;99.90;;;;;;4889458;29;20475;-96
2022/06/29 19:41:02;;;;;;;1.20;1.10;;;17.30;99.90;;;;;;4890655;29;20239;-96
2022/06/29 19:43:37;;;;;;;0.90;0.77;;;17.40;99.90;;;;;;4889722;29;20681;-96
2022/06/29 19:46:10;;;;;;;2.63;1.10;;;17.30;99.90;;;;;;4892179;29;20282;-96
2022/06/29 19:48:53;;;;;;;0.90;0.90;;;17.20;99.90;;;;;;4893052;29;20225;-96
2022/06/29 19:51:28;;;;;;;1.63;1.03;;;17.10;99.90;;;;;;4888707;29;20237;-96
2022/06/29 19:54:05;;;;;;;1.53;1.00;;;17.40;99.90;;;;;;4891327;29;20217;-96
2022/06/29 19:56:39;;;;;;;2.40;1.10;;;17.70;99.90;;;;;;4888941;29;20757;-96
2022/06/29 19:59:14;;;;;;;2.97;1.20;;;18.00;99.90;;;;;;4889829;29;20213;-96
2022/06/29 20:02:01;;;;;;;5.07;1.00;;;18.10;99.90;;;;;;4890966;29;20210;-96
2022/06/29 20:05:04;;;;;;;0.87;0.80;;;17.70;99.90;;;;;;4891816;29;20309;-96
2022/06/29 20:07:42;;;;;;;1.20;1.10;;;17.80;99.90;;;;;;4891467;29;20221;-96
2022/06/29 20:13:06;;;;;;;1.77;1.30;;;17.60;99.90;;;;;;4886467;29;20685;-96
2022/06/29 20:15:40;;;;;;;3.60;1.13;;;17.50;99.90;;;;;;4888404;29;20220;-96
2022/06/29 20:18:16;;;;;;;1.93;1.30;;;17.60;99.90;;;;;;4886968;29;20221;-96
2022/06/29 20:20:53;;;;;;;1.53;1.00;;;18.00;99.90;;;;;;4893324;29;20227;-96
2022/06/29 20:23:25;;;;;;;1.40;1.00;;;18.40;99.90;;;;;;4887178;29;20557;-96
2022/06/29 20:28:59;;;;;;;2.67;0.90;;;17.60;99.90;;;;;;4898452;29;20236;-96
2022/06/29 20:31:30;;;;;;;2.07;1.10;;;17.60;99.90;;;;;;4893845;29;20272;-96
2022/06/29 20:34:03;;;;;;;1.23;1.13;;;17.60;99.90;;;;;;4892243;29;20218;-96
2022/06/29 20:36:43;;;;;;;3.57;1.40;;;17.80;99.90;;;;;;4891602;29;20222;-96
2022/06/29 20:39:18;;;;;;;1.63;1.20;;;18.00;99.90;;;;;;4890434;29;20281;-96
2022/06/29 20:41:50;;;;;;;1.77;1.20;;;18.00;99.90;;;;;;4888646;29;20675;-96
2022/06/29 20:50:28;;;;;;;1.93;1.20;;;17.90;99.90;;;;;;4899101;29;20241;-96
2022/06/29 20:53:21;;;;;;;2.30;1.00;;;18.10;99.90;;;;;;4910844;29;20290;-96
2022/06/29 21:04:42;;;;;;;1.07;0.97;;;18.00;99.90;;;;;;4897815;29;20218;-96